sensor_id;sensor_type;location;lat;lon;timestamp;temperature;humidity
9389;DHT22;4734;52.778;6.798;2023-06-14T00:00:22;20.20;57.90
9389;DHT22;4734;52.778;6.798;2023-06-14T00:03:07;20.20;57.90
9389;DHT22;4734;52.778;6.798;2023-06-14T00:05:54;20.10;57.80
9389;DHT22;4734;52.778;6.798;2023-06-14T00:08:39;20.10;57.80
9389;DHT22;4734;52.778;6.798;2023-06-14T00:11:26;20.00;57.80
9389;DHT22;4734;52.778;6.798;2023-06-14T00:14:11;20.00;57.90
9389;DHT22;4734;52.778;6.798;2023-06-14T00:16:58;19.90;57.80
9389;DHT22;4734;52.778;6.798;2023-06-14T00:19:44;19.90;57.90
9389;DHT22;4734;52.778;6.798;2023-06-14T00:22:30;19.80;57.90
9389;DHT22;4734;52.778;6.798;2023-06-14T00:25:17;19.70;57.80
9389;DHT22;4734;52.778;6.798;2023-06-14T00:28:03;19.60;58.10
9389;DHT22;4734;52.778;6.798;2023-06-14T00:30:48;19.60;58.00
9389;DHT22;4734;52.778;6.798;2023-06-14T00:33:35;19.50;58.00
9389;DHT22;4734;52.778;6.798;2023-06-14T00:36:21;19.50;58.10
9389;DHT22;4734;52.778;6.798;2023-06-14T00:39:06;19.50;58.00
9389;DHT22;4734;52.778;6.798;2023-06-14T00:41:54;19.40;58.00
9389;DHT22;4734;52.778;6.798;2023-06-14T00:44:39;19.40;58.10
9389;DHT22;4734;52.778;6.798;2023-06-14T00:47:25;19.30;58.10
9389;DHT22;4734;52.778;6.798;2023-06-14T00:50:12;19.30;58.10
9389;DHT22;4734;52.778;6.798;2023-06-14T00:52:58;19.20;58.20
9389;DHT22;4734;52.778;6.798;2023-06-14T00:55:45;19.10;58.20
9389;DHT22;4734;52.778;6.798;2023-06-14T00:58:31;19.10;58.20
9389;DHT22;4734;52.778;6.798;2023-06-14T01:01:17;19.10;58.30
9389;DHT22;4734;52.778;6.798;2023-06-14T01:04:03;19.00;58.10
9389;DHT22;4734;52.778;6.798;2023-06-14T01:06:59;19.00;58.20
9389;DHT22;4734;52.778;6.798;2023-06-14T01:10:03;19.00;58.20
9389;DHT22;4734;52.778;6.798;2023-06-14T01:12:55;18.90;58.20
9389;DHT22;4734;52.778;6.798;2023-06-14T01:15:44;18.90;58.20
9389;DHT22;4734;52.778;6.798;2023-06-14T01:18:30;18.90;58.30
9389;DHT22;4734;52.778;6.798;2023-06-14T01:21:23;18.80;58.20
9389;DHT22;4734;52.778;6.798;2023-06-14T01:24:10;18.80;58.20
9389;DHT22;4734;52.778;6.798;2023-06-14T01:26:57;18.80;58.80
9389;DHT22;4734;52.778;6.798;2023-06-14T01:29:44;18.80;58.10
9389;DHT22;4734;52.778;6.798;2023-06-14T01:32:30;18.70;58.30
9389;DHT22;4734;52.778;6.798;2023-06-14T01:35:16;18.70;58.30
9389;DHT22;4734;52.778;6.798;2023-06-14T01:38:03;18.70;58.30
9389;DHT22;4734;52.778;6.798;2023-06-14T01:40:52;18.60;58.10
9389;DHT22;4734;52.778;6.798;2023-06-14T01:43:40;18.60;58.30
9389;DHT22;4734;52.778;6.798;2023-06-14T01:46:26;18.60;58.20
9389;DHT22;4734;52.778;6.798;2023-06-14T01:49:12;18.50;58.80
9389;DHT22;4734;52.778;6.798;2023-06-14T01:51:57;18.50;58.10
9389;DHT22;4734;52.778;6.798;2023-06-14T01:54:44;18.50;58.20
9389;DHT22;4734;52.778;6.798;2023-06-14T01:57:31;18.50;58.20
9389;DHT22;4734;52.778;6.798;2023-06-14T02:00:17;18.40;58.20
9389;DHT22;4734;52.778;6.798;2023-06-14T02:03:03;18.40;58.20
9389;DHT22;4734;52.778;6.798;2023-06-14T02:05:49;18.40;58.10
9389;DHT22;4734;52.778;6.798;2023-06-14T02:08:34;18.40;58.10
9389;DHT22;4734;52.778;6.798;2023-06-14T02:11:20;18.40;58.10
9389;DHT22;4734;52.778;6.798;2023-06-14T02:14:07;18.40;58.00
9389;DHT22;4734;52.778;6.798;2023-06-14T02:16:55;18.30;58.00
9389;DHT22;4734;52.778;6.798;2023-06-14T02:19:41;18.30;58.10
9389;DHT22;4734;52.778;6.798;2023-06-14T02:22:26;18.30;58.10
9389;DHT22;4734;52.778;6.798;2023-06-14T02:25:12;18.20;58.00
9389;DHT22;4734;52.778;6.798;2023-06-14T02:27:58;18.20;58.00
9389;DHT22;4734;52.778;6.798;2023-06-14T02:30:45;18.20;58.00
9389;DHT22;4734;52.778;6.798;2023-06-14T02:33:30;18.20;58.10
9389;DHT22;4734;52.778;6.798;2023-06-14T02:36:16;18.10;58.00
9389;DHT22;4734;52.778;6.798;2023-06-14T02:39:02;18.10;58.00
9389;DHT22;4734;52.778;6.798;2023-06-14T02:41:47;18.10;58.00
9389;DHT22;4734;52.778;6.798;2023-06-14T02:44:33;18.10;57.90
9389;DHT22;4734;52.778;6.798;2023-06-14T02:47:20;18.10;58.00
9389;DHT22;4734;52.778;6.798;2023-06-14T02:50:07;18.10;58.00
9389;DHT22;4734;52.778;6.798;2023-06-14T02:52:53;18.00;58.00
9389;DHT22;4734;52.778;6.798;2023-06-14T02:55:40;18.00;58.00
9389;DHT22;4734;52.778;6.798;2023-06-14T02:58:25;18.00;57.90
9389;DHT22;4734;52.778;6.798;2023-06-14T03:01:11;17.90;57.90
9389;DHT22;4734;52.778;6.798;2023-06-14T03:04:00;17.90;58.00
9389;DHT22;4734;52.778;6.798;2023-06-14T03:06:45;17.90;58.00
9389;DHT22;4734;52.778;6.798;2023-06-14T03:09:35;17.80;57.90
9389;DHT22;4734;52.778;6.798;2023-06-14T03:12:21;17.80;58.00
9389;DHT22;4734;52.778;6.798;2023-06-14T03:15:09;17.80;58.70
9389;DHT22;4734;52.778;6.798;2023-06-14T03:17:55;17.80;58.10
9389;DHT22;4734;52.778;6.798;2023-06-14T03:20:42;17.70;58.00
9389;DHT22;4734;52.778;6.798;2023-06-14T03:23:29;17.70;58.10
9389;DHT22;4734;52.778;6.798;2023-06-14T03:26:15;17.70;58.10
9389;DHT22;4734;52.778;6.798;2023-06-14T03:29:02;17.70;58.20
9389;DHT22;4734;52.778;6.798;2023-06-14T03:31:58;17.70;58.10
9389;DHT22;4734;52.778;6.798;2023-06-14T03:34:44;17.60;57.90
9389;DHT22;4734;52.778;6.798;2023-06-14T03:37:31;17.60;58.00
9389;DHT22;4734;52.778;6.798;2023-06-14T03:40:18;17.60;58.00
9389;DHT22;4734;52.778;6.798;2023-06-14T03:43:04;17.60;58.60
9389;DHT22;4734;52.778;6.798;2023-06-14T03:45:49;17.60;58.10
9389;DHT22;4734;52.778;6.798;2023-06-14T03:48:35;17.50;58.00
9389;DHT22;4734;52.778;6.798;2023-06-14T03:51:21;17.50;58.00
9389;DHT22;4734;52.778;6.798;2023-06-14T03:54:11;17.50;58.10
9389;DHT22;4734;52.778;6.798;2023-06-14T03:56:56;17.50;58.60
9389;DHT22;4734;52.778;6.798;2023-06-14T03:59:42;17.50;58.00
9389;DHT22;4734;52.778;6.798;2023-06-14T04:02:27;17.50;58.10
9389;DHT22;4734;52.778;6.798;2023-06-14T04:05:13;17.50;58.10
9389;DHT22;4734;52.778;6.798;2023-06-14T04:08:00;17.40;58.00
9389;DHT22;4734;52.778;6.798;2023-06-14T04:10:47;17.40;58.00
9389;DHT22;4734;52.778;6.798;2023-06-14T04:13:32;17.40;58.00
9389;DHT22;4734;52.778;6.798;2023-06-14T04:16:19;17.40;58.00
9389;DHT22;4734;52.778;6.798;2023-06-14T04:19:05;17.40;58.00
9389;DHT22;4734;52.778;6.798;2023-06-14T04:21:50;17.40;58.10
9389;DHT22;4734;52.778;6.798;2023-06-14T04:24:36;17.40;58.10
9389;DHT22;4734;52.778;6.798;2023-06-14T04:27:24;17.40;58.20
9389;DHT22;4734;52.778;6.798;2023-06-14T04:30:10;17.40;58.20
9389;DHT22;4734;52.778;6.798;2023-06-14T04:32:57;17.40;58.20
9389;DHT22;4734;52.778;6.798;2023-06-14T04:35:44;17.40;58.20
9389;DHT22;4734;52.778;6.798;2023-06-14T04:38:31;17.40;58.30
9389;DHT22;4734;52.778;6.798;2023-06-14T04:41:18;17.50;58.30
9389;DHT22;4734;52.778;6.798;2023-06-14T04:44:06;17.50;58.40
9389;DHT22;4734;52.778;6.798;2023-06-14T04:46:51;17.50;58.40
9389;DHT22;4734;52.778;6.798;2023-06-14T04:49:37;17.50;58.40
9389;DHT22;4734;52.778;6.798;2023-06-14T04:52:23;17.50;58.40
9389;DHT22;4734;52.778;6.798;2023-06-14T04:55:10;17.50;58.40
9389;DHT22;4734;52.778;6.798;2023-06-14T04:57:57;17.50;58.50
9389;DHT22;4734;52.778;6.798;2023-06-14T05:00:47;17.50;59.10
9389;DHT22;4734;52.778;6.798;2023-06-14T05:03:32;17.50;58.60
9389;DHT22;4734;52.778;6.798;2023-06-14T05:06:18;17.50;58.50
9389;DHT22;4734;52.778;6.798;2023-06-14T05:09:04;17.50;58.70
9389;DHT22;4734;52.778;6.798;2023-06-14T05:11:50;17.50;58.70
9389;DHT22;4734;52.778;6.798;2023-06-14T05:14:36;17.50;58.70
9389;DHT22;4734;52.778;6.798;2023-06-14T05:17:24;17.60;58.90
9389;DHT22;4734;52.778;6.798;2023-06-14T05:20:12;17.60;58.80
9389;DHT22;4734;52.778;6.798;2023-06-14T05:22:57;17.60;58.90
9389;DHT22;4734;52.778;6.798;2023-06-14T05:25:44;17.70;59.00
9389;DHT22;4734;52.778;6.798;2023-06-14T05:28:29;17.70;59.00
9389;DHT22;4734;52.778;6.798;2023-06-14T05:31:15;17.70;59.70
9389;DHT22;4734;52.778;6.798;2023-06-14T05:34:02;17.80;59.10
9389;DHT22;4734;52.778;6.798;2023-06-14T05:36:48;17.80;59.10
9389;DHT22;4734;52.778;6.798;2023-06-14T05:39:33;17.80;59.10
9389;DHT22;4734;52.778;6.798;2023-06-14T05:42:19;17.90;59.20
9389;DHT22;4734;52.778;6.798;2023-06-14T05:45:06;17.90;59.20
9389;DHT22;4734;52.778;6.798;2023-06-14T05:47:52;18.00;59.40
9389;DHT22;4734;52.778;6.798;2023-06-14T05:50:40;18.00;59.40
9389;DHT22;4734;52.778;6.798;2023-06-14T05:53:25;18.10;59.50
9389;DHT22;4734;52.778;6.798;2023-06-14T05:56:11;18.10;59.70
9389;DHT22;4734;52.778;6.798;2023-06-14T05:58:56;18.20;60.80
9389;DHT22;4734;52.778;6.798;2023-06-14T06:01:42;18.20;60.20
9389;DHT22;4734;52.778;6.798;2023-06-14T06:04:28;18.20;60.40
9389;DHT22;4734;52.778;6.798;2023-06-14T06:07:15;18.30;60.70
9389;DHT22;4734;52.778;6.798;2023-06-14T06:10:00;18.40;60.80
9389;DHT22;4734;52.778;6.798;2023-06-14T06:12:46;18.50;61.00
9389;DHT22;4734;52.778;6.798;2023-06-14T06:15:32;18.70;60.30
9389;DHT22;4734;52.778;6.798;2023-06-14T06:18:18;18.70;60.90
9389;DHT22;4734;52.778;6.798;2023-06-14T06:21:04;18.80;61.10
9389;DHT22;4734;52.778;6.798;2023-06-14T06:23:51;18.90;61.10
9389;DHT22;4734;52.778;6.798;2023-06-14T06:26:37;19.00;61.40
9389;DHT22;4734;52.778;6.798;2023-06-14T06:29:24;19.10;61.30
9389;DHT22;4734;52.778;6.798;2023-06-14T06:32:09;19.20;61.60
9389;DHT22;4734;52.778;6.798;2023-06-14T06:34:55;19.30;61.70
9389;DHT22;4734;52.778;6.798;2023-06-14T06:37:42;19.50;61.70
9389;DHT22;4734;52.778;6.798;2023-06-14T06:40:29;19.60;61.90
9389;DHT22;4734;52.778;6.798;2023-06-14T06:43:14;19.70;61.90
9389;DHT22;4734;52.778;6.798;2023-06-14T06:46:01;19.80;62.80
9389;DHT22;4734;52.778;6.798;2023-06-14T06:48:46;20.00;62.20
9389;DHT22;4734;52.778;6.798;2023-06-14T06:51:32;20.10;62.20
9389;DHT22;4734;52.778;6.798;2023-06-14T06:54:18;20.20;62.20
9389;DHT22;4734;52.778;6.798;2023-06-14T06:57:05;20.40;63.10
9389;DHT22;4734;52.778;6.798;2023-06-14T06:59:52;20.50;62.20
9389;DHT22;4734;52.778;6.798;2023-06-14T07:02:37;20.60;62.00
9389;DHT22;4734;52.778;6.798;2023-06-14T07:05:23;20.80;62.30
9389;DHT22;4734;52.778;6.798;2023-06-14T07:08:09;20.90;62.40
9389;DHT22;4734;52.778;6.798;2023-06-14T07:10:54;21.00;62.50
9389;DHT22;4734;52.778;6.798;2023-06-14T07:13:41;21.20;62.50
9389;DHT22;4734;52.778;6.798;2023-06-14T07:16:27;21.50;62.00
9389;DHT22;4734;52.778;6.798;2023-06-14T07:19:12;21.50;62.60
9389;DHT22;4734;52.778;6.798;2023-06-14T07:21:58;21.60;62.50
9389;DHT22;4734;52.778;6.798;2023-06-14T07:24:43;21.80;62.30
9389;DHT22;4734;52.778;6.798;2023-06-14T07:27:29;22.00;62.40
9389;DHT22;4734;52.778;6.798;2023-06-14T07:30:16;22.00;63.00
9389;DHT22;4734;52.778;6.798;2023-06-14T07:33:02;22.20;63.40
9389;DHT22;4734;52.778;6.798;2023-06-14T07:35:47;22.30;63.50
9389;DHT22;4734;52.778;6.798;2023-06-14T07:38:33;22.50;63.30
9389;DHT22;4734;52.778;6.798;2023-06-14T07:41:20;22.70;63.10
9389;DHT22;4734;52.778;6.798;2023-06-14T07:44:06;22.80;63.50
9389;DHT22;4734;52.778;6.798;2023-06-14T07:46:53;22.90;63.00
9389;DHT22;4734;52.778;6.798;2023-06-14T07:49:42;23.20;62.70
9389;DHT22;4734;52.778;6.798;2023-06-14T07:52:28;23.20;63.70
9389;DHT22;4734;52.778;6.798;2023-06-14T07:55:14;23.40;63.40
9389;DHT22;4734;52.778;6.798;2023-06-14T07:58:00;23.60;62.90
9389;DHT22;4734;52.778;6.798;2023-06-14T08:00:46;23.70;63.70
9389;DHT22;4734;52.778;6.798;2023-06-14T08:03:37;23.80;62.80
9389;DHT22;4734;52.778;6.798;2023-06-14T08:06:25;23.90;62.50
9389;DHT22;4734;52.778;6.798;2023-06-14T08:09:14;24.10;62.40
9389;DHT22;4734;52.778;6.798;2023-06-14T08:12:00;24.20;61.80
9389;DHT22;4734;52.778;6.798;2023-06-14T08:14:46;24.30;61.40
9389;DHT22;4734;52.778;6.798;2023-06-14T08:17:32;24.40;61.80
9389;DHT22;4734;52.778;6.798;2023-06-14T08:20:19;24.60;62.40
9389;DHT22;4734;52.778;6.798;2023-06-14T08:23:05;24.70;62.20
9389;DHT22;4734;52.778;6.798;2023-06-14T08:25:50;24.90;61.50
9389;DHT22;4734;52.778;6.798;2023-06-14T08:28:35;25.00;60.80
9389;DHT22;4734;52.778;6.798;2023-06-14T08:31:21;25.10;61.70
9389;DHT22;4734;52.778;6.798;2023-06-14T08:34:07;25.30;61.00
9389;DHT22;4734;52.778;6.798;2023-06-14T08:36:54;25.40;61.20
9389;DHT22;4734;52.778;6.798;2023-06-14T08:39:40;25.60;63.10
9389;DHT22;4734;52.778;6.798;2023-06-14T08:42:26;25.80;61.60
9389;DHT22;4734;52.778;6.798;2023-06-14T08:45:12;25.90;60.40
9389;DHT22;4734;52.778;6.798;2023-06-14T08:47:58;26.00;60.50
9389;DHT22;4734;52.778;6.798;2023-06-14T08:50:45;26.10;60.90
9389;DHT22;4734;52.778;6.798;2023-06-14T08:53:36;26.20;60.00
9389;DHT22;4734;52.778;6.798;2023-06-14T08:56:26;26.40;62.30
9389;DHT22;4734;52.778;6.798;2023-06-14T08:59:13;26.60;61.40
9389;DHT22;4734;52.778;6.798;2023-06-14T09:01:59;26.70;60.20
9389;DHT22;4734;52.778;6.798;2023-06-14T09:04:45;26.80;59.70
9389;DHT22;4734;52.778;6.798;2023-06-14T09:07:30;26.90;59.00
9389;DHT22;4734;52.778;6.798;2023-06-14T09:10:18;27.00;59.40
9389;DHT22;4734;52.778;6.798;2023-06-14T09:13:04;27.10;59.60
9389;DHT22;4734;52.778;6.798;2023-06-14T09:15:50;27.20;59.40
9389;DHT22;4734;52.778;6.798;2023-06-14T09:18:36;27.30;58.60
9389;DHT22;4734;52.778;6.798;2023-06-14T09:21:22;27.50;58.60
9389;DHT22;4734;52.778;6.798;2023-06-14T09:24:13;27.60;58.80
9389;DHT22;4734;52.778;6.798;2023-06-14T09:27:01;27.70;58.50
9389;DHT22;4734;52.778;6.798;2023-06-14T09:29:46;27.80;57.80
9389;DHT22;4734;52.778;6.798;2023-06-14T09:32:32;27.90;58.30
9389;DHT22;4734;52.778;6.798;2023-06-14T09:35:21;28.10;57.90
9389;DHT22;4734;52.778;6.798;2023-06-14T09:38:06;28.20;58.20
9389;DHT22;4734;52.778;6.798;2023-06-14T09:40:52;28.30;59.00
9389;DHT22;4734;52.778;6.798;2023-06-14T09:43:39;28.50;60.60
9389;DHT22;4734;52.778;6.798;2023-06-14T09:46:26;28.70;58.80
9389;DHT22;4734;52.778;6.798;2023-06-14T09:49:12;28.80;58.20
9389;DHT22;4734;52.778;6.798;2023-06-14T09:51:58;28.90;58.20
9389;DHT22;4734;52.778;6.798;2023-06-14T09:54:45;29.00;57.30
9389;DHT22;4734;52.778;6.798;2023-06-14T09:57:32;29.10;56.60
9389;DHT22;4734;52.778;6.798;2023-06-14T10:00:22;29.10;55.70
9389;DHT22;4734;52.778;6.798;2023-06-14T10:03:14;29.20;55.10
9389;DHT22;4734;52.778;6.798;2023-06-14T10:06:02;29.20;56.30
9389;DHT22;4734;52.778;6.798;2023-06-14T10:08:55;29.30;55.50
9389;DHT22;4734;52.778;6.798;2023-06-14T10:11:42;29.40;55.20
9389;DHT22;4734;52.778;6.798;2023-06-14T10:14:29;29.50;55.30
9389;DHT22;4734;52.778;6.798;2023-06-14T10:17:27;29.60;54.90
9389;DHT22;4734;52.778;6.798;2023-06-14T10:20:25;29.70;55.20
9389;DHT22;4734;52.778;6.798;2023-06-14T10:23:17;29.80;54.30
9389;DHT22;4734;52.778;6.798;2023-06-14T10:26:23;29.90;53.90
9389;DHT22;4734;52.778;6.798;2023-06-14T10:29:09;30.00;53.90
9389;DHT22;4734;52.778;6.798;2023-06-14T10:31:57;30.10;54.20
9389;DHT22;4734;52.778;6.798;2023-06-14T10:34:46;30.20;53.40
9389;DHT22;4734;52.778;6.798;2023-06-14T10:37:39;30.30;54.00
9389;DHT22;4734;52.778;6.798;2023-06-14T10:40:30;30.50;54.00
9389;DHT22;4734;52.778;6.798;2023-06-14T10:43:22;30.50;53.30
9389;DHT22;4734;52.778;6.798;2023-06-14T10:46:16;30.70;53.10
9389;DHT22;4734;52.778;6.798;2023-06-14T10:49:02;30.80;53.50
9389;DHT22;4734;52.778;6.798;2023-06-14T10:51:51;30.80;54.00
9389;DHT22;4734;52.778;6.798;2023-06-14T10:54:37;31.00;53.30
9389;DHT22;4734;52.778;6.798;2023-06-14T10:57:22;31.00;52.90
9389;DHT22;4734;52.778;6.798;2023-06-14T11:00:09;31.10;53.90
9389;DHT22;4734;52.778;6.798;2023-06-14T11:06:48;31.30;51.90
9389;DHT22;4734;52.778;6.798;2023-06-14T11:09:56;31.40;53.80
9389;DHT22;4734;52.778;6.798;2023-06-14T11:12:48;31.50;52.30
9389;DHT22;4734;52.778;6.798;2023-06-14T11:15:36;31.50;52.90
9389;DHT22;4734;52.778;6.798;2023-06-14T11:18:22;31.70;51.90
9389;DHT22;4734;52.778;6.798;2023-06-14T11:21:11;31.70;52.00
9389;DHT22;4734;52.778;6.798;2023-06-14T11:24:00;31.80;51.20
9389;DHT22;4734;52.778;6.798;2023-06-14T11:26:48;31.80;50.70
9389;DHT22;4734;52.778;6.798;2023-06-14T11:29:34;31.90;51.20
9389;DHT22;4734;52.778;6.798;2023-06-14T11:32:20;31.90;51.60
9389;DHT22;4734;52.778;6.798;2023-06-14T11:35:06;32.00;51.80
9389;DHT22;4734;52.778;6.798;2023-06-14T11:37:54;32.10;52.60
9389;DHT22;4734;52.778;6.798;2023-06-14T11:40:41;32.20;52.20
9389;DHT22;4734;52.778;6.798;2023-06-14T11:43:28;32.30;52.00
9389;DHT22;4734;52.778;6.798;2023-06-14T11:46:16;32.30;51.20
9389;DHT22;4734;52.778;6.798;2023-06-14T11:49:07;32.40;51.60
9389;DHT22;4734;52.778;6.798;2023-06-14T11:51:53;32.50;52.30
9389;DHT22;4734;52.778;6.798;2023-06-14T11:54:39;32.50;51.80
9389;DHT22;4734;52.778;6.798;2023-06-14T11:57:26;32.60;52.20
9389;DHT22;4734;52.778;6.798;2023-06-14T12:00:14;32.60;51.90
9389;DHT22;4734;52.778;6.798;2023-06-14T12:03:00;32.70;51.40
9389;DHT22;4734;52.778;6.798;2023-06-14T12:05:47;32.70;51.80
9389;DHT22;4734;52.778;6.798;2023-06-14T12:08:33;32.80;53.30
9389;DHT22;4734;52.778;6.798;2023-06-14T12:11:31;32.80;54.20
9389;DHT22;4734;52.778;6.798;2023-06-14T12:14:17;32.80;53.10
9389;DHT22;4734;52.778;6.798;2023-06-14T12:17:07;32.90;52.40
9389;DHT22;4734;52.778;6.798;2023-06-14T12:19:53;32.80;52.20
9389;DHT22;4734;52.778;6.798;2023-06-14T12:22:39;32.80;51.40
9389;DHT22;4734;52.778;6.798;2023-06-14T12:25:29;32.80;51.70
9389;DHT22;4734;52.778;6.798;2023-06-14T12:28:16;32.80;52.80
9389;DHT22;4734;52.778;6.798;2023-06-14T12:31:02;32.70;52.30
9389;DHT22;4734;52.778;6.798;2023-06-14T12:33:50;32.60;52.40
9389;DHT22;4734;52.778;6.798;2023-06-14T12:36:36;32.60;53.90
9389;DHT22;4734;52.778;6.798;2023-06-14T12:39:25;32.60;53.60
9389;DHT22;4734;52.778;6.798;2023-06-14T12:42:12;32.50;53.80
9389;DHT22;4734;52.778;6.798;2023-06-14T12:44:59;32.50;54.60
9389;DHT22;4734;52.778;6.798;2023-06-14T12:47:45;32.50;54.70
9389;DHT22;4734;52.778;6.798;2023-06-14T12:50:32;32.40;55.20
9389;DHT22;4734;52.778;6.798;2023-06-14T12:53:18;32.30;55.60
9389;DHT22;4734;52.778;6.798;2023-06-14T12:56:04;32.30;55.60
9389;DHT22;4734;52.778;6.798;2023-06-14T12:58:50;32.20;56.90
9389;DHT22;4734;52.778;6.798;2023-06-14T13:01:40;32.20;57.30
9389;DHT22;4734;52.778;6.798;2023-06-14T13:04:29;32.20;57.20
9389;DHT22;4734;52.778;6.798;2023-06-14T13:07:16;32.10;56.60
9389;DHT22;4734;52.778;6.798;2023-06-14T13:10:03;32.10;56.70
9389;DHT22;4734;52.778;6.798;2023-06-14T13:12:49;32.00;57.20
9389;DHT22;4734;52.778;6.798;2023-06-14T13:15:34;32.00;57.70
9389;DHT22;4734;52.778;6.798;2023-06-14T13:18:20;32.00;58.00
9389;DHT22;4734;52.778;6.798;2023-06-14T13:21:06;32.10;58.00
9389;DHT22;4734;52.778;6.798;2023-06-14T13:23:53;32.10;57.50
9389;DHT22;4734;52.778;6.798;2023-06-14T13:26:39;32.10;57.20
9389;DHT22;4734;52.778;6.798;2023-06-14T13:29:25;32.10;56.80
9389;DHT22;4734;52.778;6.798;2023-06-14T13:32:11;32.30;56.90
9389;DHT22;4734;52.778;6.798;2023-06-14T13:34:57;32.30;56.60
9389;DHT22;4734;52.778;6.798;2023-06-14T13:37:43;32.40;57.30
9389;DHT22;4734;52.778;6.798;2023-06-14T13:40:30;32.50;56.50
9389;DHT22;4734;52.778;6.798;2023-06-14T13:43:16;32.70;56.00
9389;DHT22;4734;52.778;6.798;2023-06-14T13:46:01;32.80;55.10
9389;DHT22;4734;52.778;6.798;2023-06-14T13:48:47;32.90;55.60
9389;DHT22;4734;52.778;6.798;2023-06-14T13:51:33;33.00;55.20
9389;DHT22;4734;52.778;6.798;2023-06-14T13:54:20;33.20;55.40
9389;DHT22;4734;52.778;6.798;2023-06-14T13:57:07;33.30;54.70
9389;DHT22;4734;52.778;6.798;2023-06-14T13:59:53;33.40;54.40
9389;DHT22;4734;52.778;6.798;2023-06-14T14:02:44;33.50;53.90
9389;DHT22;4734;52.778;6.798;2023-06-14T14:05:30;33.60;52.50
9389;DHT22;4734;52.778;6.798;2023-06-14T14:08:16;33.60;53.00
9389;DHT22;4734;52.778;6.798;2023-06-14T14:11:01;33.70;53.30
9389;DHT22;4734;52.778;6.798;2023-06-14T14:13:48;33.70;53.40
9389;DHT22;4734;52.778;6.798;2023-06-14T14:16:34;33.80;53.50
9389;DHT22;4734;52.778;6.798;2023-06-14T14:19:21;33.90;53.70
9389;DHT22;4734;52.778;6.798;2023-06-14T14:22:07;33.90;53.40
9389;DHT22;4734;52.778;6.798;2023-06-14T14:24:53;34.00;53.80
9389;DHT22;4734;52.778;6.798;2023-06-14T14:27:39;34.00;52.90
9389;DHT22;4734;52.778;6.798;2023-06-14T14:30:26;34.00;52.70
9389;DHT22;4734;52.778;6.798;2023-06-14T14:33:11;34.00;52.80
9389;DHT22;4734;52.778;6.798;2023-06-14T14:36:01;34.00;52.90
9389;DHT22;4734;52.778;6.798;2023-06-14T14:38:48;34.00;53.20
9389;DHT22;4734;52.778;6.798;2023-06-14T14:41:36;34.00;52.40
9389;DHT22;4734;52.778;6.798;2023-06-14T14:44:22;34.00;52.80
9389;DHT22;4734;52.778;6.798;2023-06-14T14:47:09;34.00;52.80
9389;DHT22;4734;52.778;6.798;2023-06-14T14:49:54;34.10;52.70
9389;DHT22;4734;52.778;6.798;2023-06-14T14:52:39;34.00;52.80
9389;DHT22;4734;52.778;6.798;2023-06-14T14:55:25;34.00;53.10
9389;DHT22;4734;52.778;6.798;2023-06-14T14:58:12;34.00;53.00
9389;DHT22;4734;52.778;6.798;2023-06-14T15:01:01;34.10;53.20
9389;DHT22;4734;52.778;6.798;2023-06-14T15:03:48;34.10;53.40
9389;DHT22;4734;52.778;6.798;2023-06-14T15:06:33;34.20;53.40
9389;DHT22;4734;52.778;6.798;2023-06-14T15:09:20;34.30;53.40
9389;DHT22;4734;52.778;6.798;2023-06-14T15:12:06;34.30;53.40
9389;DHT22;4734;52.778;6.798;2023-06-14T15:14:53;34.40;53.40
9389;DHT22;4734;52.778;6.798;2023-06-14T15:17:38;34.50;53.30
9389;DHT22;4734;52.778;6.798;2023-06-14T15:20:26;34.60;53.10
9389;DHT22;4734;52.778;6.798;2023-06-14T15:23:11;34.70;53.00
9389;DHT22;4734;52.778;6.798;2023-06-14T15:26:03;34.80;53.00
9389;DHT22;4734;52.778;6.798;2023-06-14T15:28:48;34.80;52.90
9389;DHT22;4734;52.778;6.798;2023-06-14T15:31:34;34.90;52.70
9389;DHT22;4734;52.778;6.798;2023-06-14T15:34:20;34.90;52.70
9389;DHT22;4734;52.778;6.798;2023-06-14T15:37:07;35.00;52.80
9389;DHT22;4734;52.778;6.798;2023-06-14T15:39:52;35.00;52.70
9389;DHT22;4734;52.778;6.798;2023-06-14T15:42:38;35.00;52.60
9389;DHT22;4734;52.778;6.798;2023-06-14T15:45:24;35.00;52.50
9389;DHT22;4734;52.778;6.798;2023-06-14T15:48:09;35.00;52.40
9389;DHT22;4734;52.778;6.798;2023-06-14T15:50:55;35.00;52.90
9389;DHT22;4734;52.778;6.798;2023-06-14T15:53:46;35.00;52.40
9389;DHT22;4734;52.778;6.798;2023-06-14T15:56:33;35.00;52.60
9389;DHT22;4734;52.778;6.798;2023-06-14T15:59:18;34.90;52.90
9389;DHT22;4734;52.778;6.798;2023-06-14T16:02:05;34.90;53.10
9389;DHT22;4734;52.778;6.798;2023-06-14T16:04:50;34.80;53.20
9389;DHT22;4734;52.778;6.798;2023-06-14T16:07:36;34.80;53.10
9389;DHT22;4734;52.778;6.798;2023-06-14T16:10:23;34.80;53.40
9389;DHT22;4734;52.778;6.798;2023-06-14T16:13:10;34.80;53.20
9389;DHT22;4734;52.778;6.798;2023-06-14T16:15:55;34.80;53.60
9389;DHT22;4734;52.778;6.798;2023-06-14T16:18:41;34.70;53.60
9389;DHT22;4734;52.778;6.798;2023-06-14T16:21:27;34.70;53.50
9389;DHT22;4734;52.778;6.798;2023-06-14T16:24:12;34.70;53.40
9389;DHT22;4734;52.778;6.798;2023-06-14T16:27:01;34.70;53.30
9389;DHT22;4734;52.778;6.798;2023-06-14T16:29:51;34.70;53.20
9389;DHT22;4734;52.778;6.798;2023-06-14T16:32:36;34.70;53.20
9389;DHT22;4734;52.778;6.798;2023-06-14T16:35:22;34.60;53.20
9389;DHT22;4734;52.778;6.798;2023-06-14T16:38:07;34.50;53.20
9389;DHT22;4734;52.778;6.798;2023-06-14T16:40:53;34.50;53.20
9389;DHT22;4734;52.778;6.798;2023-06-14T16:43:40;34.40;52.80
9389;DHT22;4734;52.778;6.798;2023-06-14T16:46:29;34.30;53.20
9389;DHT22;4734;52.778;6.798;2023-06-14T16:49:15;34.30;53.60
9389;DHT22;4734;52.778;6.798;2023-06-14T16:52:00;34.20;53.40
9389;DHT22;4734;52.778;6.798;2023-06-14T16:54:46;34.10;53.70
9389;DHT22;4734;52.778;6.798;2023-06-14T16:57:32;34.10;54.00
9389;DHT22;4734;52.778;6.798;2023-06-14T17:00:22;34.00;54.10
9389;DHT22;4734;52.778;6.798;2023-06-14T17:03:07;34.00;54.10
9389;DHT22;4734;52.778;6.798;2023-06-14T17:05:54;33.90;53.80
9389;DHT22;4734;52.778;6.798;2023-06-14T17:08:41;33.90;54.20
9389;DHT22;4734;52.778;6.798;2023-06-14T17:11:26;33.90;54.20
9389;DHT22;4734;52.778;6.798;2023-06-14T17:14:12;33.90;54.30
9389;DHT22;4734;52.778;6.798;2023-06-14T17:16:59;33.80;54.00
9389;DHT22;4734;52.778;6.798;2023-06-14T17:19:44;33.70;54.10
9389;DHT22;4734;52.778;6.798;2023-06-14T17:22:30;33.60;54.20
9389;DHT22;4734;52.778;6.798;2023-06-14T17:25:16;33.60;54.30
9389;DHT22;4734;52.778;6.798;2023-06-14T17:28:01;33.50;54.40
9389;DHT22;4734;52.778;6.798;2023-06-14T17:30:47;33.40;54.50
9389;DHT22;4734;52.778;6.798;2023-06-14T17:33:34;33.30;54.60
9389;DHT22;4734;52.778;6.798;2023-06-14T17:36:20;33.20;54.70
9389;DHT22;4734;52.778;6.798;2023-06-14T17:39:05;33.00;54.80
9389;DHT22;4734;52.778;6.798;2023-06-14T17:41:52;33.00;55.00
9389;DHT22;4734;52.778;6.798;2023-06-14T17:44:38;32.90;55.00
9389;DHT22;4734;52.778;6.798;2023-06-14T17:47:23;32.80;55.50
9389;DHT22;4734;52.778;6.798;2023-06-14T17:50:11;32.70;55.10
9389;DHT22;4734;52.778;6.798;2023-06-14T17:52:56;32.60;55.40
9389;DHT22;4734;52.778;6.798;2023-06-14T17:55:42;32.50;55.00
9389;DHT22;4734;52.778;6.798;2023-06-14T17:58:28;32.40;55.00
9389;DHT22;4734;52.778;6.798;2023-06-14T18:01:14;32.30;55.20
9389;DHT22;4734;52.778;6.798;2023-06-14T18:04:00;32.20;55.30
9389;DHT22;4734;52.778;6.798;2023-06-14T18:06:47;32.10;55.30
9389;DHT22;4734;52.778;6.798;2023-06-14T18:09:33;32.00;55.30
9389;DHT22;4734;52.778;6.798;2023-06-14T18:12:18;31.90;55.20